Littleton, CO (80123)

5:04 AM MST on March 04, 2015 (GMT -0700)
Chatfield Heights | Change Station
CLOSE
Current Station
Personal Weather Station
Location: Littleton, CO
Elevation: 5554 ft
Nearby Weather Stations

Elev 5554 ft 39.56 °N, 105.07 °W | Updated 44 seconds ago

Snow
Snow
11.8 °F
Feels Like 12 °F
N
0.0
Wind Variable Wind from SW
Gusts 0.0 mph

Today
High -- | Low -- °F
--% Chance of Precip.
Yesterday
High -- | Low -- °F
Precip. -- in
6:28 AM 5:55 PM
Waxing Gibbous, 99% visible
Pressure 30.26 in
Visibility 2.0 miles
Clouds Scattered Clouds 900 ft
Mostly Cloudy 2000 ft
Overcast 2500 ft
Windchill 12 °F
Dew Point 8 °F
Humidity 86%
Rainfall 0.00 in
Snow Depth Not available.
UV 0 out of 12
Pollen .70 out of 12
Air Quality Not available.
Flu Activity Not available.
METAR KAPA 041153Z 02005KT 2SM -SN BR SCT009 BKN020 OVC025 M12/M14 A3003 RMK AO2 SLP245 P0000 60001 70001 T11221144 11083 21128 53025

More Conditions Fewer Conditions

Pressure 30.26 in
Visibility 2.0 miles
Clouds Scattered Clouds 900 ft
Mostly Cloudy 2000 ft
Overcast 2500 ft
Windchill 12 °F
Dew Point 8 °F
Humidity 86%
Rainfall 0.00 in
Snow Depth Not available.
UV 0 out of 12
Pollen .70 out of 12
Air Quality Not available.
Flu Activity Not available.
METAR KAPA 041153Z 02005KT 2SM -SN BR SCT009 BKN020 OVC025 M12/M14 A3003 RMK AO2 SLP245 P0000 60001 70001 T11221144 11083 21128 53025

More Conditions Fewer Conditions

10-Day Weather Forecast

Almanac

Astronomy

Mar. 04, 2015 Rise Set
Actual Time
Civil Twilight
Nautical Twilight
Astronomical Twilight
Moon
Length of Visible Light
Length of Day
Tomorrow will be .
, % of the Moon is Illuminated

Today's Extremes

State Highs State Lows

Community

WunderPhotos

Upload Photos

1,802,436 photos uploaded!

WunderBlogs® & News

Nearby

Air Quality

  Air Quality AQ Index Pollutant
Not available.

Snow Depth

Station Depth Elevation

Earthquake Activity

City Distance Mag. Time & Date
Minimum magnitude displayed is 2.5.

Coastal Water Temperatures

Place Temperature

Nearby Weather Stations